createdAt,value
2022-08-30T00:08:13.863Z,20.70
2022-08-30T00:18:16.218Z,20.84
2022-08-30T00:28:17.959Z,20.85
2022-08-30T00:38:19.645Z,20.78
2022-08-30T00:48:21.446Z,20.76
2022-08-30T00:58:27.521Z,20.60
2022-08-30T01:08:29.226Z,20.59
2022-08-30T01:18:32.298Z,20.47
2022-08-30T01:28:35.350Z,20.38
2022-08-30T01:38:40.281Z,20.19
2022-08-30T01:48:42.364Z,20.09
2022-08-30T01:58:52.613Z,19.87
2022-08-30T02:08:54.634Z,19.66
2022-08-30T02:18:59.256Z,19.30
2022-08-30T02:29:01.134Z,19.17
2022-08-30T02:39:03.074Z,19.25
2022-08-30T02:49:29.964Z,19.07
2022-08-30T02:59:27.146Z,19.10
2022-08-30T03:09:29.122Z,19.12
2022-08-30T03:19:30.914Z,18.95
2022-08-30T03:29:32.605Z,18.96
2022-08-30T03:39:34.501Z,18.96
2022-08-30T03:49:36.564Z,18.95
2022-08-30T03:59:38.457Z,18.85
2022-08-30T04:09:40.206Z,19.05
2022-08-30T04:19:41.987Z,19.26
2022-08-30T04:29:44.414Z,19.49
2022-08-30T04:39:46.791Z,19.86
2022-08-30T04:49:48.790Z,20.11
2022-08-30T04:59:50.537Z,20.26
2022-08-30T05:09:52.505Z,20.27
2022-08-30T05:19:54.218Z,20.63
2022-08-30T05:29:56.086Z,21.70
2022-08-30T05:39:58.885Z,22.45
2022-08-30T05:50:01.619Z,22.97
2022-08-30T06:00:06.635Z,23.19
2022-08-30T06:10:10.227Z,23.45
2022-08-30T06:20:12.387Z,23.92
2022-08-30T06:30:15.195Z,24.61
2022-08-30T06:40:21.925Z,24.73
2022-08-30T06:50:26.279Z,24.95
2022-08-30T07:00:28.071Z,25.32
2022-08-30T07:10:30.148Z,25.45
2022-08-30T07:20:40.556Z,25.71
2022-08-30T07:30:42.677Z,25.66
2022-08-30T07:40:44.444Z,26.10
2022-08-30T07:50:46.983Z,26.06
2022-08-30T08:00:49.014Z,26.86
2022-08-30T08:10:50.767Z,26.59
2022-08-30T08:20:55.994Z,26.52
2022-08-30T08:30:59.269Z,26.95
2022-08-30T08:41:24.726Z,28.24
2022-08-30T08:51:47.873Z,28.46
2022-08-30T09:12:33.748Z,28.02
2022-08-30T09:22:37.948Z,27.94
2022-08-30T09:32:46.901Z,28.27
2022-08-30T09:43:01.754Z,28.28
2022-08-30T09:53:35.172Z,29.08
2022-08-30T10:03:43.784Z,29.34
2022-08-30T10:13:45.526Z,29.22
2022-08-30T10:23:51.272Z,28.91
2022-08-30T10:33:55.331Z,29.52
2022-08-30T10:43:59.878Z,29.72
2022-08-30T10:54:20.429Z,30.55
2022-08-30T11:04:22.181Z,30.61
2022-08-30T11:14:25.348Z,30.96
2022-08-30T11:24:27.536Z,30.72
2022-08-30T11:34:47.826Z,30.55
2022-08-30T11:44:49.580Z,30.49
2022-08-30T11:55:09.935Z,30.90
2022-08-30T12:05:30.745Z,31.47
2022-08-30T12:15:51.287Z,31.89
2022-08-30T12:26:30.467Z,31.75
2022-08-30T12:36:32.198Z,32.30
2022-08-30T12:46:34.046Z,32.27
2022-08-30T12:56:56.645Z,32.15
2022-08-30T13:06:59.617Z,32.18
2022-08-30T13:17:20.420Z,31.58
2022-08-30T13:27:22.617Z,31.04
2022-08-30T13:47:50.488Z,30.97
2022-08-30T13:57:54.165Z,31.17
2022-08-30T14:07:57.130Z,31.17
2022-08-30T14:17:59.496Z,30.93
2022-08-30T14:28:01.392Z,29.81
2022-08-30T14:38:03.963Z,28.73
2022-08-30T14:48:11.337Z,28.42
2022-08-30T14:58:17.948Z,27.60
2022-08-30T15:08:19.993Z,27.10
2022-08-30T15:18:23.370Z,26.76
2022-08-30T15:28:25.947Z,26.40
2022-08-30T15:38:28.498Z,26.11
2022-08-30T15:48:31.519Z,25.91
2022-08-30T15:58:33.146Z,25.63
2022-08-30T16:08:34.942Z,25.27
2022-08-30T16:18:37.624Z,24.85
2022-08-30T16:28:39.437Z,24.75
2022-08-30T16:38:42.631Z,24.41
2022-08-30T16:48:45.272Z,24.02
2022-08-30T16:58:47.788Z,23.64
2022-08-30T17:08:49.580Z,23.21
2022-08-30T17:19:00.607Z,22.80
2022-08-30T17:29:03.103Z,22.48
2022-08-30T17:39:11.052Z,22.19
2022-08-30T17:49:13.354Z,21.89
2022-08-30T17:59:17.797Z,21.61
2022-08-30T18:09:19.692Z,21.40
2022-08-30T18:19:26.048Z,21.05
2022-08-30T18:29:31.491Z,20.67
2022-08-30T18:39:34.989Z,20.23
2022-08-30T18:49:37.112Z,20.19
2022-08-30T18:59:42.050Z,20.06
2022-08-30T19:09:45.335Z,20.04
2022-08-30T19:19:49.251Z,19.86
2022-08-30T19:40:33.864Z,19.27
2022-08-30T19:50:37.043Z,19.14
2022-08-30T20:00:39.275Z,19.34
2022-08-30T20:10:55.339Z,19.12
2022-08-30T20:20:57.257Z,19.02
2022-08-30T20:30:59.589Z,18.80
2022-08-30T20:41:02.842Z,18.77
2022-08-30T20:51:07.917Z,18.43
2022-08-30T21:01:10.803Z,18.40
2022-08-30T21:11:12.979Z,18.15
2022-08-30T21:21:16.395Z,18.33
2022-08-30T21:31:22.961Z,18.21
2022-08-30T21:41:25.233Z,17.93
2022-08-30T21:51:29.461Z,17.83
2022-08-30T22:01:31.662Z,18.00
2022-08-30T22:11:34.464Z,17.96
2022-08-30T22:21:37.205Z,17.78
2022-08-30T22:31:41.267Z,17.69
2022-08-30T22:41:44.355Z,17.41
2022-08-30T22:51:46.031Z,17.43
2022-08-30T23:01:47.777Z,17.36
2022-08-30T23:11:49.712Z,17.32
2022-08-30T23:21:51.380Z,17.37
2022-08-30T23:32:11.751Z,17.36
2022-08-30T23:42:31.948Z,16.98
2022-08-30T23:52:51.978Z,17.12
